Arnold, Kansas
Current Conditions -  °F | °C
As of 8:35 AM on Sunday 23 Nov 2014 (Local Time) from KHYS Reporting Station
Clear Clear  
Wind Chill: 38°   Ceiling: Unl
Heat Index: 46°   Visibility: 10mi
Dew Point: 36°   Wind: 25mph
Humidity: 66%   Direction: 360°N
Pressure: 29.53"   Gusts: 33mph
Location:  38.64°N, 100.05°W
Report Text: KHYS 231435Z AUTO 36022G29KT 10SM CLR 08/02 A2953 RMK AO1
Loading
Personal Weather Stations






























Interactive Weather Map New forecast layout! Learn more

10-Day Weather Forecast

Advertisements
Track Severe Weather on mobile